createdAt,value
2022-09-28T00:01:12.835Z,2.00
2022-09-28T00:03:40.585Z,2.37
2022-09-28T00:06:11.303Z,2.00
2022-09-28T00:08:39.463Z,2.30
2022-09-28T00:11:09.431Z,2.17
2022-09-28T00:13:37.210Z,2.30
2022-09-28T00:16:08.687Z,2.77
2022-09-28T00:18:37.901Z,2.40
2022-09-28T00:21:08.128Z,2.57
2022-09-28T00:23:57.919Z,2.80
2022-09-28T00:26:26.852Z,2.77
2022-09-28T00:28:55.633Z,2.53
2022-09-28T00:31:25.176Z,2.23
2022-09-28T00:33:55.467Z,2.70
2022-09-28T00:36:23.404Z,2.90
2022-09-28T00:38:52.298Z,2.83
2022-09-28T00:41:20.022Z,2.70
2022-09-28T00:43:47.837Z,3.37
2022-09-28T00:46:20.045Z,2.93
2022-09-28T00:48:55.722Z,3.00
2022-09-28T00:51:25.467Z,2.87
2022-09-28T00:53:54.391Z,3.17
2022-09-28T00:56:26.654Z,2.90
2022-09-28T00:58:55.506Z,3.07
2022-09-28T01:01:24.181Z,2.70
2022-09-28T01:03:54.906Z,2.80
2022-09-28T01:06:27.532Z,3.50
2022-09-28T01:09:00.179Z,3.10
2022-09-28T01:11:28.309Z,2.90
2022-09-28T01:13:59.369Z,2.70
2022-09-28T01:16:35.513Z,2.93
2022-09-28T01:19:18.863Z,2.70
2022-09-28T01:21:53.159Z,2.73
2022-09-28T01:24:38.251Z,3.20
2022-09-28T01:27:16.550Z,1.87
2022-09-28T01:29:53.640Z,1.37
2022-09-28T01:32:37.598Z,1.40
2022-09-28T01:35:10.146Z,1.50
2022-09-28T01:37:46.652Z,1.13
2022-09-28T01:40:16.927Z,1.27
2022-09-28T01:42:49.738Z,1.00
2022-09-28T01:45:23.823Z,1.10
2022-09-28T01:47:53.926Z,1.10
2022-09-28T01:50:26.503Z,1.00
2022-09-28T01:53:00.738Z,0.80
2022-09-28T01:55:32.854Z,0.90
2022-09-28T01:58:06.083Z,0.70
2022-09-28T02:00:35.778Z,0.90
2022-09-28T02:03:09.393Z,1.07
2022-09-28T02:05:41.335Z,1.30
2022-09-28T02:08:11.916Z,1.40
2022-09-28T02:10:43.632Z,1.50
2022-09-28T02:13:17.653Z,1.20
2022-09-28T02:15:51.519Z,1.20
2022-09-28T02:18:19.666Z,1.10
2022-09-28T02:20:54.104Z,1.23
2022-09-28T02:23:25.897Z,1.00
2022-09-28T02:26:01.749Z,1.20
2022-09-28T02:28:32.181Z,1.00
2022-09-28T02:30:59.857Z,0.90
2022-09-28T02:33:32.721Z,1.00
2022-09-28T02:36:02.014Z,1.53
2022-09-28T02:38:29.988Z,1.53
2022-09-28T02:41:05.408Z,1.20
2022-09-28T02:43:45.062Z,1.40
2022-09-28T02:46:19.895Z,1.20
2022-09-28T02:49:17.413Z,1.13
2022-09-28T02:51:57.733Z,1.00
2022-09-28T02:54:38.995Z,1.00
2022-09-28T02:57:14.777Z,1.00
2022-09-28T02:59:54.329Z,1.20
2022-09-28T03:02:29.857Z,1.30
2022-09-28T03:05:15.525Z,1.10
2022-09-28T03:07:50.566Z,1.30
2022-09-28T03:10:26.738Z,1.10
2022-09-28T03:12:55.914Z,1.60
2022-09-28T03:15:27.236Z,1.50
2022-09-28T03:17:55.240Z,1.80
2022-09-28T03:20:22.927Z,2.37
2022-09-28T03:23:12.427Z,3.00
2022-09-28T03:25:38.485Z,3.57
2022-09-28T03:28:07.327Z,4.33
2022-09-28T03:30:36.300Z,4.10
2022-09-28T03:33:04.461Z,4.60
2022-09-28T03:35:32.216Z,4.97
2022-09-28T03:38:01.484Z,4.87
2022-09-28T03:40:29.537Z,5.57
2022-09-28T03:42:57.293Z,6.67
2022-09-28T03:45:25.134Z,8.30
2022-09-28T03:47:54.496Z,7.20
2022-09-28T03:50:22.319Z,7.13
2022-09-28T03:52:50.101Z,7.37
2022-09-28T03:55:18.285Z,7.67
2022-09-28T03:57:45.991Z,8.13
2022-09-28T04:00:14.576Z,7.40
2022-09-28T04:02:42.331Z,7.20
2022-09-28T04:05:11.834Z,7.40
2022-09-28T04:07:39.474Z,7.63
2022-09-28T04:10:08.580Z,6.77
2022-09-28T04:12:36.447Z,7.30
2022-09-28T04:15:04.522Z,7.90
2022-09-28T04:17:36.476Z,7.27
2022-09-28T04:20:08.053Z,6.40
2022-09-28T04:22:37.800Z,8.03
2022-09-28T04:25:06.427Z,7.73
2022-09-28T04:27:51.538Z,7.40
2022-09-28T04:30:19.893Z,8.43
2022-09-28T04:32:48.051Z,8.03
2022-09-28T04:35:16.415Z,8.30
2022-09-28T04:37:45.731Z,8.27
2022-09-28T04:40:13.507Z,8.17
2022-09-28T04:42:41.495Z,8.53
2022-09-28T04:45:10.805Z,8.97
2022-09-28T04:47:38.624Z,8.67
2022-09-28T04:50:08.263Z,9.10
2022-09-28T04:52:37.399Z,8.43
2022-09-28T04:55:07.954Z,8.43
2022-09-28T04:57:36.359Z,9.60
2022-09-28T05:00:05.475Z,9.50
2022-09-28T05:02:34.760Z,8.33
2022-09-28T05:05:02.539Z,9.47
2022-09-28T05:07:31.210Z,9.00
2022-09-28T05:10:01.601Z,8.57
2022-09-28T05:12:30.766Z,9.20
2022-09-28T05:14:59.096Z,8.43
2022-09-28T05:17:26.952Z,9.87
2022-09-28T05:19:54.666Z,9.23
2022-09-28T05:22:23.575Z,10.10
2022-09-28T05:24:51.765Z,9.00
2022-09-28T05:27:19.563Z,9.67
2022-09-28T05:29:48.974Z,9.87
2022-09-28T05:32:17.105Z,9.60
2022-09-28T05:34:44.879Z,9.67
2022-09-28T05:37:12.823Z,9.13
2022-09-28T05:39:40.662Z,9.60
2022-09-28T05:42:08.565Z,9.53
2022-09-28T05:44:38.585Z,9.57
2022-09-28T05:47:07.980Z,9.57
2022-09-28T05:49:36.257Z,10.20
2022-09-28T05:52:04.231Z,9.80
2022-09-28T05:54:32.058Z,9.50
2022-09-28T05:56:59.854Z,9.13
2022-09-28T05:59:30.524Z,9.17
2022-09-28T06:01:58.452Z,9.60
2022-09-28T06:04:29.821Z,9.60
2022-09-28T06:06:57.837Z,9.03
2022-09-28T06:09:26.123Z,8.43
2022-09-28T06:11:54.442Z,9.37
2022-09-28T06:14:22.395Z,9.53
2022-09-28T06:16:50.477Z,9.83
2022-09-28T06:19:18.577Z,9.30
2022-09-28T06:21:48.463Z,9.30
2022-09-28T06:24:17.638Z,9.50
2022-09-28T06:26:45.354Z,9.47
2022-09-28T06:29:19.290Z,10.20
2022-09-28T06:31:48.078Z,10.20
2022-09-28T06:34:17.244Z,9.07
2022-09-28T06:36:45.469Z,9.27
2022-09-28T06:39:14.784Z,8.80
2022-09-28T06:41:42.543Z,9.27
2022-09-28T06:44:10.480Z,9.83
2022-09-28T06:46:39.398Z,9.50
2022-09-28T06:49:09.296Z,9.43
2022-09-28T06:51:37.798Z,8.73
2022-09-28T06:54:05.917Z,8.77
2022-09-28T06:56:35.443Z,9.57
2022-09-28T06:59:03.036Z,9.33
2022-09-28T07:01:31.218Z,9.37
2022-09-28T07:03:59.344Z,8.80
2022-09-28T07:06:27.214Z,9.10
2022-09-28T07:09:06.006Z,9.67
2022-09-28T07:11:44.882Z,9.10
2022-09-28T07:14:23.783Z,9.43
2022-09-28T07:17:12.282Z,8.90
2022-09-28T07:19:40.671Z,8.43
2022-09-28T07:22:08.431Z,8.93
2022-09-28T07:24:36.323Z,8.10
2022-09-28T07:27:05.764Z,9.33
2022-09-28T07:29:33.490Z,8.47
2022-09-28T07:32:01.347Z,8.83
2022-09-28T07:34:29.118Z,9.97
2022-09-28T07:36:59.774Z,9.10
2022-09-28T07:39:27.681Z,8.67
2022-09-28T07:41:56.761Z,8.70
2022-09-28T07:44:30.048Z,8.07
2022-09-28T07:46:57.907Z,8.03
2022-09-28T07:49:25.679Z,8.60
2022-09-28T07:51:53.509Z,7.80
2022-09-28T07:54:21.629Z,8.30
2022-09-28T07:56:49.165Z,8.20
2022-09-28T07:59:18.815Z,7.30
2022-09-28T08:01:49.520Z,7.27
2022-09-28T08:04:18.241Z,7.47
2022-09-28T08:06:46.158Z,7.73
2022-09-28T08:09:13.886Z,7.33
2022-09-28T08:11:43.948Z,7.43
2022-09-28T08:14:11.983Z,7.10
2022-09-28T08:16:40.949Z,7.80
2022-09-28T08:19:10.399Z,7.33
2022-09-28T08:21:45.902Z,7.67
2022-09-28T08:24:14.203Z,7.27
2022-09-28T08:26:43.294Z,7.90
2022-09-28T08:29:11.330Z,7.27
2022-09-28T08:31:39.627Z,7.70
2022-09-28T08:34:07.372Z,7.60
2022-09-28T08:36:36.952Z,7.13
2022-09-28T08:39:05.178Z,7.60
2022-09-28T08:41:40.527Z,7.00
2022-09-28T08:44:16.450Z,7.43
2022-09-28T08:46:47.909Z,7.47
2022-09-28T08:49:25.491Z,7.07
2022-09-28T08:52:02.443Z,7.50
2022-09-28T08:54:41.724Z,6.93
2022-09-28T08:57:15.384Z,7.10
2022-09-28T08:59:51.565Z,7.03
2022-09-28T09:02:25.589Z,6.67
2022-09-28T09:04:53.953Z,7.30
2022-09-28T09:07:53.700Z,6.60
2022-09-28T09:10:45.166Z,7.27
2022-09-28T09:13:35.569Z,7.10
2022-09-28T09:16:11.801Z,7.07
2022-09-28T09:18:48.009Z,8.07
2022-09-28T09:21:17.564Z,7.40
2022-09-28T09:23:56.437Z,7.97
2022-09-28T09:26:39.269Z,6.80
2022-09-28T09:29:22.200Z,7.90
2022-09-28T09:32:08.039Z,6.93
2022-09-28T09:35:01.495Z,6.60
2022-09-28T09:37:44.168Z,6.37
2022-09-28T09:40:31.192Z,6.63
2022-09-28T09:43:28.028Z,7.20
2022-09-28T09:46:08.198Z,7.37
2022-09-28T09:48:41.018Z,7.40
2022-09-28T09:51:19.274Z,8.27
2022-09-28T09:53:51.008Z,8.47
2022-09-28T09:56:28.585Z,7.67
2022-09-28T09:59:02.575Z,7.77
2022-09-28T10:01:34.402Z,8.57
2022-09-28T10:04:06.539Z,7.47
2022-09-28T10:06:37.153Z,7.60
2022-09-28T10:09:07.381Z,7.63
2022-09-28T10:11:39.949Z,6.77
2022-09-28T10:14:08.258Z,6.77
2022-09-28T10:16:37.172Z,6.63
2022-09-28T10:19:04.978Z,6.37
2022-09-28T10:21:37.537Z,6.07
2022-09-28T10:24:05.338Z,5.60
2022-09-28T10:26:41.146Z,5.87
2022-09-28T10:29:15.807Z,5.60
2022-09-28T10:31:45.448Z,5.47
2022-09-28T10:34:17.161Z,5.70
2022-09-28T10:36:52.421Z,5.47
2022-09-28T10:39:29.062Z,5.43
2022-09-28T10:41:59.853Z,5.50
2022-09-28T10:44:28.474Z,5.90
2022-09-28T10:47:01.808Z,5.70
2022-09-28T10:49:33.370Z,5.73
2022-09-28T10:52:01.370Z,6.37
2022-09-28T10:54:31.149Z,6.40
2022-09-28T10:57:01.687Z,6.70
2022-09-28T10:59:39.661Z,6.53
2022-09-28T11:02:19.738Z,6.40
2022-09-28T11:04:54.602Z,5.63
2022-09-28T11:07:25.302Z,4.87
2022-09-28T11:09:54.665Z,4.90
2022-09-28T11:12:26.530Z,4.37
2022-09-28T11:14:59.693Z,4.03
2022-09-28T11:17:30.234Z,3.20
2022-09-28T11:20:00.699Z,3.50
2022-09-28T11:22:31.390Z,3.20
2022-09-28T11:25:22.168Z,2.93
2022-09-28T11:28:24.370Z,3.37
2022-09-28T11:30:54.311Z,3.70
2022-09-28T11:33:30.923Z,4.60
2022-09-28T11:36:08.621Z,4.50
2022-09-28T11:38:41.570Z,4.47
2022-09-28T11:41:26.623Z,4.47
2022-09-28T11:44:07.098Z,5.27
2022-09-28T11:46:44.235Z,5.30
2022-09-28T11:49:32.388Z,4.90
2022-09-28T11:52:04.830Z,4.90
2022-09-28T11:54:41.330Z,5.40
2022-09-28T11:57:15.739Z,4.70
2022-09-28T11:59:53.433Z,5.30
2022-09-28T12:02:25.923Z,7.03
2022-09-28T12:04:57.333Z,6.77
2022-09-28T12:07:31.274Z,6.17
2022-09-28T12:10:04.227Z,6.23
2022-09-28T12:12:35.253Z,6.03
2022-09-28T12:15:16.564Z,6.03
2022-09-28T12:17:48.050Z,6.47
2022-09-28T12:20:21.663Z,4.80
2022-09-28T12:23:01.991Z,4.43
2022-09-28T12:25:35.731Z,4.33
2022-09-28T12:28:07.036Z,5.00
2022-09-28T12:30:40.817Z,4.30
2022-09-28T12:33:12.136Z,3.90
2022-09-28T12:35:57.002Z,4.00
2022-09-28T12:39:14.693Z,4.03
2022-09-28T12:41:51.507Z,3.87
2022-09-28T12:44:32.019Z,4.13
2022-09-28T12:47:21.591Z,3.97
2022-09-28T12:53:03.425Z,3.50
2022-09-28T12:55:48.169Z,3.70
2022-09-28T12:58:32.411Z,4.10
2022-09-28T13:01:13.892Z,4.43
2022-09-28T13:04:04.474Z,4.07
2022-09-28T13:06:51.478Z,4.57
2022-09-28T13:09:22.227Z,4.60
2022-09-28T13:12:00.426Z,4.77
2022-09-28T13:14:53.299Z,4.43
2022-09-28T13:17:30.347Z,5.13
2022-09-28T13:20:05.007Z,4.80
2022-09-28T13:22:44.178Z,3.67
2022-09-28T13:25:16.707Z,3.00
2022-09-28T13:27:49.263Z,3.20
2022-09-28T13:30:19.418Z,3.37
2022-09-28T13:32:48.583Z,3.83
2022-09-28T13:35:20.070Z,3.50
2022-09-28T13:37:48.739Z,3.67
2022-09-28T13:40:16.684Z,3.10
2022-09-28T13:43:05.243Z,3.80
2022-09-28T13:45:54.007Z,3.60
2022-09-28T13:48:24.273Z,3.30
2022-09-28T13:51:26.338Z,3.50
2022-09-28T13:54:14.148Z,3.50
2022-09-28T13:56:50.390Z,2.80
2022-09-28T13:59:23.166Z,3.80
2022-09-28T14:01:56.121Z,6.03
2022-09-28T14:04:26.550Z,4.97
2022-09-28T14:06:58.013Z,4.47
2022-09-28T14:09:39.848Z,3.70
2022-09-28T14:12:30.455Z,3.10
2022-09-28T14:14:58.546Z,3.13
2022-09-28T14:17:53.083Z,3.00
2022-09-28T14:20:25.497Z,3.17
2022-09-28T14:23:20.365Z,3.40
2022-09-28T14:26:04.147Z,3.33
2022-09-28T14:28:45.355Z,3.70
2022-09-28T14:31:18.875Z,3.27
2022-09-28T14:33:56.840Z,3.73
2022-09-28T14:36:47.596Z,4.30
2022-09-28T14:39:40.996Z,3.90
2022-09-28T14:42:12.710Z,3.70
2022-09-28T14:45:18.087Z,3.93
2022-09-28T14:48:04.654Z,3.53
2022-09-28T14:50:32.386Z,3.90
2022-09-28T14:53:05.609Z,4.50
2022-09-28T14:55:44.388Z,4.00
2022-09-28T14:58:19.167Z,4.17
2022-09-28T15:00:47.902Z,3.30
2022-09-28T15:03:16.542Z,4.10
2022-09-28T15:05:47.221Z,3.77
2022-09-28T15:08:18.118Z,3.60
2022-09-28T15:10:49.524Z,3.80
2022-09-28T15:13:21.847Z,3.97
2022-09-28T15:15:52.255Z,3.50
2022-09-28T15:18:53.676Z,4.07
2022-09-28T15:21:22.626Z,4.70
2022-09-28T15:23:50.907Z,4.40
2022-09-28T15:26:27.653Z,3.50
2022-09-28T15:28:57.354Z,3.87
2022-09-28T15:31:27.508Z,3.30
2022-09-28T15:34:12.683Z,3.33
2022-09-28T15:36:43.159Z,3.30
2022-09-28T15:39:15.322Z,3.70
2022-09-28T15:41:45.067Z,3.80
2022-09-28T15:44:29.607Z,4.40
2022-09-28T15:47:08.203Z,5.30
2022-09-28T15:49:41.131Z,4.70
2022-09-28T15:52:22.358Z,4.70
2022-09-28T15:54:50.300Z,4.27
2022-09-28T15:57:38.026Z,4.90
2022-09-28T16:00:17.803Z,4.80
2022-09-28T16:03:02.446Z,5.20
2022-09-28T16:05:35.955Z,5.77
2022-09-28T16:08:06.297Z,6.47
2022-09-28T16:10:35.750Z,4.77
2022-09-28T16:13:17.947Z,4.03
2022-09-28T16:15:46.119Z,3.83
2022-09-28T16:18:20.726Z,3.50
2022-09-28T16:20:51.186Z,3.47
2022-09-28T16:23:22.898Z,3.57
2022-09-28T16:25:53.534Z,3.30
2022-09-28T16:28:51.737Z,3.40
2022-09-28T16:31:29.909Z,3.07
2022-09-28T16:34:01.467Z,3.97
2022-09-28T16:36:42.715Z,3.47
2022-09-28T16:39:11.734Z,3.70
2022-09-28T16:41:44.579Z,4.03
2022-09-28T16:44:19.383Z,4.43
2022-09-28T16:46:47.908Z,3.97
2022-09-28T16:49:19.342Z,4.50
2022-09-28T16:51:48.062Z,4.33
2022-09-28T16:54:37.665Z,4.57
2022-09-28T16:57:06.968Z,4.43
2022-09-28T16:59:38.483Z,4.73
2022-09-28T17:02:42.136Z,5.20
2022-09-28T17:05:11.142Z,5.20
2022-09-28T17:07:38.834Z,5.53
2022-09-28T17:10:16.924Z,4.37
2022-09-28T17:12:44.575Z,4.63
2022-09-28T17:15:19.526Z,4.70
2022-09-28T17:17:49.291Z,5.17
2022-09-28T17:20:22.519Z,4.70
2022-09-28T17:22:53.435Z,5.73
2022-09-28T17:25:24.326Z,4.80
2022-09-28T17:27:55.912Z,5.80
2022-09-28T17:30:26.285Z,6.60
2022-09-28T17:32:54.662Z,5.90
2022-09-28T17:35:24.665Z,5.93
2022-09-28T17:37:53.493Z,6.50
2022-09-28T17:40:23.064Z,6.43
2022-09-28T17:42:55.109Z,6.23
2022-09-28T17:45:23.854Z,5.40
2022-09-28T17:47:53.512Z,5.37
2022-09-28T17:50:24.402Z,6.47
2022-09-28T17:52:54.614Z,8.40
2022-09-28T17:55:23.422Z,9.57
2022-09-28T17:57:51.628Z,9.07
2022-09-28T18:00:20.202Z,10.27
2022-09-28T18:02:48.638Z,9.53
2022-09-28T18:05:19.695Z,10.33
2022-09-28T18:07:48.073Z,10.40
2022-09-28T18:10:17.140Z,9.63
2022-09-28T18:12:45.334Z,7.60
2022-09-28T18:15:14.166Z,7.40
2022-09-28T18:17:42.257Z,7.17
2022-09-28T18:20:12.090Z,6.23
2022-09-28T18:22:41.969Z,6.70
2022-09-28T18:25:11.083Z,6.23
2022-09-28T18:27:38.912Z,5.97
2022-09-28T18:30:08.208Z,5.70
2022-09-28T18:32:36.966Z,6.87
2022-09-28T18:35:05.283Z,6.90
2022-09-28T18:37:37.417Z,6.13
2022-09-28T18:40:07.965Z,6.97
2022-09-28T18:42:37.170Z,7.00
2022-09-28T18:45:06.279Z,6.90
2022-09-28T18:47:34.902Z,7.07
2022-09-28T18:50:02.970Z,7.70
2022-09-28T18:52:30.854Z,7.10
2022-09-28T18:54:58.601Z,6.17
2022-09-28T18:57:28.453Z,6.80
2022-09-28T18:59:56.113Z,6.10
2022-09-28T19:02:24.205Z,6.83
2022-09-28T19:04:52.275Z,6.80
2022-09-28T19:07:21.257Z,6.90
2022-09-28T19:09:49.512Z,6.50
2022-09-28T19:12:17.614Z,6.57
2022-09-28T19:14:47.202Z,6.53
2022-09-28T19:17:14.981Z,5.93
2022-09-28T19:19:43.832Z,6.43
2022-09-28T19:22:13.367Z,6.30
2022-09-28T19:24:41.411Z,6.13
2022-09-28T19:27:09.717Z,6.60
2022-09-28T19:29:37.967Z,6.73
2022-09-28T19:32:07.130Z,6.63
2022-09-28T19:34:35.086Z,6.23
2022-09-28T19:37:03.963Z,6.37
2022-09-28T19:39:32.087Z,6.20
2022-09-28T19:42:01.304Z,6.67
2022-09-28T19:44:31.172Z,6.60
2022-09-28T19:47:00.598Z,6.53
2022-09-28T19:49:33.044Z,7.27
2022-09-28T19:52:12.694Z,6.60
2022-09-28T19:54:41.908Z,7.03
2022-09-28T19:57:11.455Z,6.57
2022-09-28T19:59:39.451Z,6.73
2022-09-28T20:02:08.932Z,6.53
2022-09-28T20:04:38.342Z,6.53
2022-09-28T20:07:06.200Z,6.73
2022-09-28T20:09:34.231Z,7.67
2022-09-28T20:12:02.713Z,6.83
2022-09-28T20:14:34.243Z,6.13
2022-09-28T20:17:06.121Z,7.33
2022-09-28T20:19:35.139Z,6.60
2022-09-28T20:22:05.136Z,6.43
2022-09-28T20:24:33.673Z,7.13
2022-09-28T20:27:02.502Z,7.27
2022-09-28T20:29:31.660Z,6.07
2022-09-28T20:32:00.367Z,6.93
2022-09-28T20:34:28.535Z,6.87
2022-09-28T20:36:56.402Z,7.27
2022-09-28T20:39:26.079Z,7.57
2022-09-28T20:41:55.209Z,6.90
2022-09-28T20:44:23.294Z,7.00
2022-09-28T20:46:51.548Z,6.87
2022-09-28T20:49:20.144Z,7.70
2022-09-28T20:51:48.317Z,7.93
2022-09-28T20:54:16.473Z,7.43
2022-09-28T20:56:48.295Z,7.07
2022-09-28T20:59:16.515Z,7.03
2022-09-28T21:01:44.730Z,6.37
2022-09-28T21:04:13.063Z,6.87
2022-09-28T21:06:42.451Z,6.37
2022-09-28T21:09:12.513Z,7.23
2022-09-28T21:11:41.174Z,7.57
2022-09-28T21:14:11.106Z,6.87
2022-09-28T21:16:39.343Z,7.07
2022-09-28T21:19:07.226Z,6.90
2022-09-28T21:21:35.016Z,7.63
2022-09-28T21:24:03.617Z,6.60
2022-09-28T21:26:32.752Z,6.33
2022-09-28T21:29:02.023Z,6.83
2022-09-28T21:31:33.681Z,6.77
2022-09-28T21:34:01.712Z,6.30
2022-09-28T21:36:29.711Z,6.60
2022-09-28T21:38:57.576Z,6.97
2022-09-28T21:41:26.335Z,5.50
2022-09-28T21:43:54.372Z,7.10
2022-09-28T21:46:22.515Z,6.57
2022-09-28T21:48:54.424Z,6.50
2022-09-28T21:51:23.204Z,6.60
2022-09-28T21:53:50.887Z,5.73
2022-09-28T21:56:19.096Z,6.13
2022-09-28T21:58:47.857Z,6.60
2022-09-28T22:01:17.984Z,6.20
2022-09-28T22:03:48.095Z,6.00
2022-09-28T22:06:19.140Z,6.63
2022-09-28T22:08:47.785Z,6.00
2022-09-28T22:11:18.312Z,6.47
2022-09-28T22:13:47.736Z,5.93
2022-09-28T22:16:17.323Z,5.83
2022-09-28T22:18:45.672Z,5.90
2022-09-28T22:21:15.729Z,6.10
2022-09-28T22:23:45.623Z,5.80
2022-09-28T22:26:18.190Z,6.13
2022-09-28T22:28:48.443Z,6.73
2022-09-28T22:31:17.713Z,5.90
2022-09-28T22:33:45.898Z,5.50
2022-09-28T22:36:16.905Z,5.70
2022-09-28T22:38:47.010Z,5.80
2022-09-28T22:41:16.983Z,6.03
2022-09-28T22:43:45.230Z,5.40
2022-09-28T22:46:14.775Z,5.83
2022-09-28T22:48:43.338Z,5.20
2022-09-28T22:51:11.425Z,5.53
2022-09-28T22:53:39.524Z,5.80
2022-09-28T22:56:13.506Z,4.90
2022-09-28T22:58:44.200Z,6.70
2022-09-28T23:01:13.642Z,5.47
2022-09-28T23:03:42.855Z,5.50
2022-09-28T23:06:11.510Z,5.63
2022-09-28T23:08:40.395Z,5.67
2022-09-28T23:11:10.084Z,5.13
2022-09-28T23:13:38.407Z,5.40
2022-09-28T23:16:08.002Z,5.67
2022-09-28T23:18:38.496Z,5.33
2022-09-28T23:21:08.549Z,5.63
2022-09-28T23:23:36.301Z,5.07
2022-09-28T23:26:13.150Z,5.10
2022-09-28T23:28:42.797Z,5.00
2022-09-28T23:31:12.394Z,5.33
2022-09-28T23:33:40.450Z,4.80
2022-09-28T23:36:09.775Z,5.27
2022-09-28T23:38:37.934Z,5.63
2022-09-28T23:41:05.996Z,5.10
2022-09-28T23:43:36.153Z,5.40
2022-09-28T23:46:04.453Z,5.30
2022-09-28T23:48:32.542Z,5.30
2022-09-28T23:51:00.745Z,5.27
2022-09-28T23:53:29.157Z,5.00
2022-09-28T23:55:57.403Z,5.13
2022-09-28T23:58:25.746Z,5.03
